sensor_id;sensor_type;location;lat;lon;timestamp;pressure;altitude;pressure_sealevel;temperature;humidity
50302;BME280;36550;50.472;19.744;2022-07-25T00:01:18;98378.19;;;12.91;69.13
50302;BME280;36550;50.472;19.744;2022-07-25T00:04:03;98378.48;;;12.92;69.26
50302;BME280;36550;50.472;19.744;2022-07-25T00:06:47;98390.30;;;12.89;69.26
50302;BME280;36550;50.472;19.744;2022-07-25T00:09:32;98387.06;;;12.85;69.25
50302;BME280;36550;50.472;19.744;2022-07-25T00:12:16;98387.53;;;12.82;69.44
50302;BME280;36550;50.472;19.744;2022-07-25T00:15:00;98383.25;;;12.78;69.52
50302;BME280;36550;50.472;19.744;2022-07-25T00:17:45;98390.84;;;12.75;69.59
50302;BME280;36550;50.472;19.744;2022-07-25T00:20:29;98388.94;;;12.70;69.64
50302;BME280;36550;50.472;19.744;2022-07-25T00:23:13;98388.08;;;12.67;69.65
50302;BME280;36550;50.472;19.744;2022-07-25T00:25:57;98383.05;;;12.65;69.62
50302;BME280;36550;50.472;19.744;2022-07-25T00:28:42;98382.26;;;12.65;69.77
50302;BME280;36550;50.472;19.744;2022-07-25T00:31:26;98374.59;;;12.63;69.75
50302;BME280;36550;50.472;19.744;2022-07-25T00:34:10;98370.61;;;12.61;69.87
50302;BME280;36550;50.472;19.744;2022-07-25T00:36:55;98371.88;;;12.58;69.98
50302;BME280;36550;50.472;19.744;2022-07-25T00:39:38;98371.61;;;12.57;69.99
50302;BME280;36550;50.472;19.744;2022-07-25T00:42:22;98370.43;;;12.50;70.19
50302;BME280;36550;50.472;19.744;2022-07-25T00:45:08;98372.18;;;12.45;70.10
50302;BME280;36550;50.472;19.744;2022-07-25T00:47:53;98367.38;;;12.42;70.13
50302;BME280;36550;50.472;19.744;2022-07-25T00:50:37;98367.64;;;12.40;70.23
50302;BME280;36550;50.472;19.744;2022-07-25T00:53:22;98363.70;;;12.40;70.22
50302;BME280;36550;50.472;19.744;2022-07-25T00:56:07;98360.73;;;12.37;70.23
50302;BME280;36550;50.472;19.744;2022-07-25T00:58:52;98357.25;;;12.33;70.29
50302;BME280;36550;50.472;19.744;2022-07-25T01:01:37;98354.59;;;12.31;70.32
50302;BME280;36550;50.472;19.744;2022-07-25T01:04:22;98349.46;;;12.24;70.27
50302;BME280;36550;50.472;19.744;2022-07-25T01:07:06;98348.58;;;12.19;70.24
50302;BME280;36550;50.472;19.744;2022-07-25T01:09:51;98342.42;;;12.13;70.31
50302;BME280;36550;50.472;19.744;2022-07-25T01:12:50;98355.35;;;12.15;70.51
50302;BME280;36550;50.472;19.744;2022-07-25T01:15:36;98348.22;;;12.12;70.45
50302;BME280;36550;50.472;19.744;2022-07-25T01:18:21;98347.92;;;12.11;70.46
50302;BME280;36550;50.472;19.744;2022-07-25T01:21:06;98340.03;;;12.11;70.61
50302;BME280;36550;50.472;19.744;2022-07-25T01:23:50;98336.31;;;12.10;70.69
50302;BME280;36550;50.472;19.744;2022-07-25T01:26:36;98344.96;;;12.08;70.73
50302;BME280;36550;50.472;19.744;2022-07-25T01:29:21;98347.55;;;12.05;70.90
50302;BME280;36550;50.472;19.744;2022-07-25T01:32:05;98345.09;;;12.01;70.78
50302;BME280;36550;50.472;19.744;2022-07-25T01:34:49;98348.97;;;11.96;70.76
50302;BME280;36550;50.472;19.744;2022-07-25T01:37:34;98341.80;;;11.94;70.83
50302;BME280;36550;50.472;19.744;2022-07-25T01:40:19;98347.06;;;11.94;70.82
50302;BME280;36550;50.472;19.744;2022-07-25T01:43:03;98342.33;;;11.93;70.90
50302;BME280;36550;50.472;19.744;2022-07-25T01:45:48;98343.12;;;11.94;70.97
50302;BME280;36550;50.472;19.744;2022-07-25T01:48:32;98340.98;;;11.91;71.04
50302;BME280;36550;50.472;19.744;2022-07-25T01:51:16;98344.10;;;11.90;71.19
50302;BME280;36550;50.472;19.744;2022-07-25T01:54:00;98341.17;;;11.89;71.28
50302;BME280;36550;50.472;19.744;2022-07-25T01:56:44;98340.28;;;11.84;71.23
50302;BME280;36550;50.472;19.744;2022-07-25T01:59:29;98337.55;;;11.79;71.08
50302;BME280;36550;50.472;19.744;2022-07-25T02:02:13;98335.90;;;11.75;71.19
50302;BME280;36550;50.472;19.744;2022-07-25T02:04:57;98338.00;;;11.75;71.32
50302;BME280;36550;50.472;19.744;2022-07-25T02:07:41;98341.20;;;11.78;71.45
50302;BME280;36550;50.472;19.744;2022-07-25T02:10:26;98340.47;;;11.80;71.46
50302;BME280;36550;50.472;19.744;2022-07-25T02:13:12;98335.25;;;11.82;71.60
50302;BME280;36550;50.472;19.744;2022-07-25T02:15:56;98334.46;;;11.82;71.59
50302;BME280;36550;50.472;19.744;2022-07-25T02:18:41;98341.78;;;11.80;71.63
50302;BME280;36550;50.472;19.744;2022-07-25T02:21:25;98347.20;;;11.75;71.72
50302;BME280;36550;50.472;19.744;2022-07-25T02:24:09;98341.95;;;11.75;71.92
50302;BME280;36550;50.472;19.744;2022-07-25T02:26:54;98339.62;;;11.77;72.03
50302;BME280;36550;50.472;19.744;2022-07-25T02:29:38;98342.02;;;11.78;72.43
50302;BME280;36550;50.472;19.744;2022-07-25T02:32:22;98342.58;;;11.80;72.29
50302;BME280;36550;50.472;19.744;2022-07-25T02:35:07;98343.66;;;11.82;72.22
50302;BME280;36550;50.472;19.744;2022-07-25T02:37:53;98340.22;;;11.81;72.25
50302;BME280;36550;50.472;19.744;2022-07-25T02:40:37;98342.05;;;11.81;72.17
50302;BME280;36550;50.472;19.744;2022-07-25T02:43:21;98334.63;;;11.78;72.06
50302;BME280;36550;50.472;19.744;2022-07-25T02:46:06;98340.41;;;11.77;71.93
50302;BME280;36550;50.472;19.744;2022-07-25T02:48:50;98336.98;;;11.77;71.93
50302;BME280;36550;50.472;19.744;2022-07-25T02:51:34;98334.88;;;11.76;71.96
50302;BME280;36550;50.472;19.744;2022-07-25T02:54:18;98331.66;;;11.74;71.93
50302;BME280;36550;50.472;19.744;2022-07-25T02:57:03;98341.05;;;11.70;71.86
50302;BME280;36550;50.472;19.744;2022-07-25T02:59:47;98341.47;;;11.64;71.82
50302;BME280;36550;50.472;19.744;2022-07-25T03:02:31;98340.12;;;11.62;71.96
50302;BME280;36550;50.472;19.744;2022-07-25T03:05:16;98336.97;;;11.62;72.12
50302;BME280;36550;50.472;19.744;2022-07-25T03:08:00;98334.44;;;11.67;72.20
50302;BME280;36550;50.472;19.744;2022-07-25T03:10:44;98334.77;;;11.71;72.18
50302;BME280;36550;50.472;19.744;2022-07-25T03:13:28;98330.08;;;11.73;72.08
50302;BME280;36550;50.472;19.744;2022-07-25T03:16:13;98332.97;;;11.74;72.10
50302;BME280;36550;50.472;19.744;2022-07-25T03:18:57;98328.58;;;11.77;72.14
50302;BME280;36550;50.472;19.744;2022-07-25T03:21:42;98330.45;;;11.79;72.11
50302;BME280;36550;50.472;19.744;2022-07-25T03:24:26;98334.13;;;11.78;72.13
50302;BME280;36550;50.472;19.744;2022-07-25T03:27:10;98336.23;;;11.79;72.13
50302;BME280;36550;50.472;19.744;2022-07-25T03:29:54;98328.38;;;11.81;72.11
50302;BME280;36550;50.472;19.744;2022-07-25T03:32:39;98328.48;;;11.86;72.11
50302;BME280;36550;50.472;19.744;2022-07-25T03:35:24;98330.78;;;11.94;72.26
50302;BME280;36550;50.472;19.744;2022-07-25T03:38:08;98325.36;;;12.01;72.19
50302;BME280;36550;50.472;19.744;2022-07-25T03:40:53;98330.78;;;12.09;72.21
50302;BME280;36550;50.472;19.744;2022-07-25T03:43:38;98328.64;;;12.23;72.36
50302;BME280;36550;50.472;19.744;2022-07-25T03:46:22;98324.74;;;12.57;72.17
50302;BME280;36550;50.472;19.744;2022-07-25T03:49:06;98324.52;;;12.78;72.29
50302;BME280;36550;50.472;19.744;2022-07-25T03:51:50;98318.96;;;13.13;72.19
50302;BME280;36550;50.472;19.744;2022-07-25T03:54:34;98322.05;;;13.27;72.21
50302;BME280;36550;50.472;19.744;2022-07-25T03:57:19;98321.77;;;13.43;72.17
50302;BME280;36550;50.472;19.744;2022-07-25T04:00:06;98316.12;;;13.56;72.09
50302;BME280;36550;50.472;19.744;2022-07-25T04:02:52;98317.17;;;13.80;71.79
50302;BME280;36550;50.472;19.744;2022-07-25T04:05:36;98311.99;;;13.90;71.69
50302;BME280;36550;50.472;19.744;2022-07-25T04:08:20;98305.25;;;13.99;71.59
50302;BME280;36550;50.472;19.744;2022-07-25T04:11:05;98300.84;;;14.10;71.47
50302;BME280;36550;50.472;19.744;2022-07-25T04:13:49;98304.66;;;14.22;71.49
50302;BME280;36550;50.472;19.744;2022-07-25T04:16:34;98315.92;;;14.42;71.25
50302;BME280;36550;50.472;19.744;2022-07-25T04:19:19;98303.98;;;14.64;70.95
50302;BME280;36550;50.472;19.744;2022-07-25T04:22:03;98298.00;;;14.79;70.78
50302;BME280;36550;50.472;19.744;2022-07-25T04:24:47;98298.59;;;15.39;69.89
50302;BME280;36550;50.472;19.744;2022-07-25T04:27:32;98295.95;;;15.39;70.23
50302;BME280;36550;50.472;19.744;2022-07-25T04:30:16;98298.31;;;15.38;70.26
50302;BME280;36550;50.472;19.744;2022-07-25T04:33:01;98298.84;;;15.37;70.32
50302;BME280;36550;50.472;19.744;2022-07-25T04:35:46;98297.80;;;15.41;70.40
50302;BME280;36550;50.472;19.744;2022-07-25T04:38:30;98294.67;;;15.54;70.31
50302;BME280;36550;50.472;19.744;2022-07-25T04:41:14;98298.10;;;15.55;70.24
50302;BME280;36550;50.472;19.744;2022-07-25T04:43:59;98293.66;;;15.61;70.29
50302;BME280;36550;50.472;19.744;2022-07-25T04:46:43;98296.03;;;15.67;70.32
50302;BME280;36550;50.472;19.744;2022-07-25T04:49:27;98304.02;;;15.75;70.36
50302;BME280;36550;50.472;19.744;2022-07-25T04:52:12;98303.55;;;15.88;70.41
50302;BME280;36550;50.472;19.744;2022-07-25T04:54:56;98304.66;;;16.49;70.57
50302;BME280;36550;50.472;19.744;2022-07-25T04:57:40;98304.66;;;16.49;70.57
50302;BME280;36550;50.472;19.744;2022-07-25T05:00:24;98302.27;;;16.86;70.38
50302;BME280;36550;50.472;19.744;2022-07-25T05:03:09;98297.91;;;17.28;70.51
50302;BME280;36550;50.472;19.744;2022-07-25T05:05:53;98295.05;;;17.75;70.38
50302;BME280;36550;50.472;19.744;2022-07-25T05:08:37;98295.05;;;18.22;70.01
50302;BME280;36550;50.472;19.744;2022-07-25T05:11:21;98288.56;;;18.68;69.49
50302;BME280;36550;50.472;19.744;2022-07-25T05:14:05;98288.11;;;19.16;68.66
50302;BME280;36550;50.472;19.744;2022-07-25T05:16:50;98284.59;;;19.64;67.48
50302;BME280;36550;50.472;19.744;2022-07-25T05:19:34;98285.84;;;20.10;66.65
50302;BME280;36550;50.472;19.744;2022-07-25T05:22:18;98278.28;;;20.33;65.80
50302;BME280;36550;50.472;19.744;2022-07-25T05:25:07;98279.42;;;20.60;65.24
50302;BME280;36550;50.472;19.744;2022-07-25T05:27:53;98275.77;;;20.56;64.81
50302;BME280;36550;50.472;19.744;2022-07-25T05:30:39;98280.97;;;20.47;64.24
50302;BME280;36550;50.472;19.744;2022-07-25T05:33:23;98275.51;;;20.55;63.83
50302;BME280;36550;50.472;19.744;2022-07-25T05:36:09;98271.42;;;20.63;64.25
50302;BME280;36550;50.472;19.744;2022-07-25T05:38:53;98263.72;;;20.75;64.40
50302;BME280;36550;50.472;19.744;2022-07-25T05:41:37;98258.96;;;20.88;63.85
50302;BME280;36550;50.472;19.744;2022-07-25T05:44:22;98255.55;;;21.13;63.44
50302;BME280;36550;50.472;19.744;2022-07-25T05:47:09;98253.88;;;21.42;63.31
50302;BME280;36550;50.472;19.744;2022-07-25T05:49:54;98257.92;;;21.67;63.03
50302;BME280;36550;50.472;19.744;2022-07-25T05:52:38;98254.97;;;21.91;62.72
50302;BME280;36550;50.472;19.744;2022-07-25T05:55:22;98260.57;;;22.15;62.78
50302;BME280;36550;50.472;19.744;2022-07-25T05:58:07;98255.23;;;22.38;62.38
50302;BME280;36550;50.472;19.744;2022-07-25T06:00:51;98255.82;;;22.57;62.10
50302;BME280;36550;50.472;19.744;2022-07-25T06:03:35;98251.19;;;22.80;60.77
50302;BME280;36550;50.472;19.744;2022-07-25T06:06:21;98256.01;;;23.01;59.17
50302;BME280;36550;50.472;19.744;2022-07-25T06:09:05;98252.53;;;23.20;58.56
50302;BME280;36550;50.472;19.744;2022-07-25T06:11:50;98247.78;;;23.37;58.04
50302;BME280;36550;50.472;19.744;2022-07-25T06:14:34;98252.68;;;23.53;57.36
50302;BME280;36550;50.472;19.744;2022-07-25T06:17:19;98245.34;;;23.64;56.08
50302;BME280;36550;50.472;19.744;2022-07-25T06:20:04;98244.48;;;23.75;56.11
50302;BME280;36550;50.472;19.744;2022-07-25T06:22:49;98240.28;;;23.83;56.26
50302;BME280;36550;50.472;19.744;2022-07-25T06:25:33;98236.80;;;23.91;55.25
50302;BME280;36550;50.472;19.744;2022-07-25T06:28:17;98229.06;;;23.98;55.06
50302;BME280;36550;50.472;19.744;2022-07-25T06:31:02;98228.50;;;24.08;54.18
50302;BME280;36550;50.472;19.744;2022-07-25T06:33:46;98224.23;;;24.15;53.68
50302;BME280;36550;50.472;19.744;2022-07-25T06:36:30;98214.83;;;24.24;54.23
50302;BME280;36550;50.472;19.744;2022-07-25T06:39:15;98219.22;;;24.29;53.43
50302;BME280;36550;50.472;19.744;2022-07-25T06:41:59;98207.30;;;24.32;53.27
50302;BME280;36550;50.472;19.744;2022-07-25T06:44:44;98206.35;;;24.37;51.90
50302;BME280;36550;50.472;19.744;2022-07-25T06:47:28;98206.55;;;24.47;52.73
50302;BME280;36550;50.472;19.744;2022-07-25T06:50:15;98201.02;;;24.52;51.98
50302;BME280;36550;50.472;19.744;2022-07-25T06:53:03;98205.11;;;24.58;51.73
50302;BME280;36550;50.472;19.744;2022-07-25T06:55:47;98208.67;;;24.56;50.79
50302;BME280;36550;50.472;19.744;2022-07-25T06:58:31;98200.55;;;24.58;50.06
50302;BME280;36550;50.472;19.744;2022-07-25T07:01:15;98207.55;;;24.66;49.68
50302;BME280;36550;50.472;19.744;2022-07-25T07:03:59;98201.98;;;24.71;48.90
50302;BME280;36550;50.472;19.744;2022-07-25T07:06:44;98199.65;;;24.69;48.52
50302;BME280;36550;50.472;19.744;2022-07-25T07:09:28;98196.08;;;24.71;48.49
50302;BME280;36550;50.472;19.744;2022-07-25T07:12:12;98191.88;;;24.76;47.85
50302;BME280;36550;50.472;19.744;2022-07-25T07:14:56;98189.45;;;24.84;48.41
50302;BME280;36550;50.472;19.744;2022-07-25T07:17:40;98184.47;;;24.88;47.17
50302;BME280;36550;50.472;19.744;2022-07-25T07:20:24;98182.16;;;24.93;46.90
50302;BME280;36550;50.472;19.744;2022-07-25T07:23:09;98185.77;;;24.97;46.71
50302;BME280;36550;50.472;19.744;2022-07-25T07:25:53;98185.77;;;24.97;46.71
50302;BME280;36550;50.472;19.744;2022-07-25T07:28:37;98192.69;;;24.98;46.07
50302;BME280;36550;50.472;19.744;2022-07-25T07:31:22;98192.30;;;25.02;45.90
50302;BME280;36550;50.472;19.744;2022-07-25T07:34:06;98191.56;;;24.93;44.79
50302;BME280;36550;50.472;19.744;2022-07-25T07:36:51;98192.77;;;24.89;45.30
50302;BME280;36550;50.472;19.744;2022-07-25T07:39:35;98189.55;;;24.96;45.41
50302;BME280;36550;50.472;19.744;2022-07-25T07:42:19;98180.34;;;25.06;45.12
50302;BME280;36550;50.472;19.744;2022-07-25T07:45:09;98187.69;;;25.17;45.14
50302;BME280;36550;50.472;19.744;2022-07-25T07:47:58;98180.27;;;25.29;44.90
50302;BME280;36550;50.472;19.744;2022-07-25T07:50:42;98171.94;;;25.37;44.00
50302;BME280;36550;50.472;19.744;2022-07-25T07:53:27;98178.69;;;25.43;44.29
50302;BME280;36550;50.472;19.744;2022-07-25T07:56:30;98173.12;;;25.48;43.75
50302;BME280;36550;50.472;19.744;2022-07-25T07:59:14;98178.05;;;25.52;43.36
50302;BME280;36550;50.472;19.744;2022-07-25T08:01:58;98172.86;;;25.41;43.12
50302;BME280;36550;50.472;19.744;2022-07-25T08:04:42;98176.75;;;25.38;42.95
50302;BME280;36550;50.472;19.744;2022-07-25T08:07:27;98177.85;;;25.36;42.71
50302;BME280;36550;50.472;19.744;2022-07-25T08:10:11;98174.41;;;25.42;42.34
50302;BME280;36550;50.472;19.744;2022-07-25T08:12:56;98173.12;;;25.48;42.82
50302;BME280;36550;50.472;19.744;2022-07-25T08:15:43;98166.08;;;25.50;42.19
50302;BME280;36550;50.472;19.744;2022-07-25T08:18:28;98163.92;;;25.49;41.70
50302;BME280;36550;50.472;19.744;2022-07-25T08:21:14;98162.82;;;25.50;42.28
50302;BME280;36550;50.472;19.744;2022-07-25T08:23:58;98168.65;;;25.52;42.18
50302;BME280;36550;50.472;19.744;2022-07-25T08:26:42;98170.11;;;25.50;40.84
50302;BME280;36550;50.472;19.744;2022-07-25T08:29:26;98170.05;;;25.44;41.58
50302;BME280;36550;50.472;19.744;2022-07-25T08:32:11;98168.28;;;25.48;41.97
50302;BME280;36550;50.472;19.744;2022-07-25T08:34:55;98166.80;;;25.65;40.07
50302;BME280;36550;50.472;19.744;2022-07-25T08:37:39;98166.80;;;25.65;40.07
50302;BME280;36550;50.472;19.744;2022-07-25T08:40:27;98165.27;;;25.77;40.65
50302;BME280;36550;50.472;19.744;2022-07-25T08:43:12;98169.10;;;25.82;40.63
50302;BME280;36550;50.472;19.744;2022-07-25T08:46:00;98167.88;;;25.85;39.90
50302;BME280;36550;50.472;19.744;2022-07-25T08:48:45;98173.99;;;25.95;41.02
50302;BME280;36550;50.472;19.744;2022-07-25T08:51:31;98176.23;;;25.99;40.55
50302;BME280;36550;50.472;19.744;2022-07-25T08:54:16;98169.30;;;26.04;40.43
50302;BME280;36550;50.472;19.744;2022-07-25T08:57:01;98169.88;;;26.09;40.02
50302;BME280;36550;50.472;19.744;2022-07-25T08:59:45;98161.24;;;26.10;38.06
50302;BME280;36550;50.472;19.744;2022-07-25T09:02:29;98161.93;;;26.13;40.03
50302;BME280;36550;50.472;19.744;2022-07-25T09:05:13;98158.58;;;26.22;40.10
50302;BME280;36550;50.472;19.744;2022-07-25T09:08:07;98158.38;;;26.27;39.33
50302;BME280;36550;50.472;19.744;2022-07-25T09:10:55;98160.28;;;26.27;38.68
50302;BME280;36550;50.472;19.744;2022-07-25T09:13:39;98151.64;;;26.27;39.66
50302;BME280;36550;50.472;19.744;2022-07-25T09:16:36;98153.08;;;26.19;37.56
50302;BME280;36550;50.472;19.744;2022-07-25T09:19:19;98150.96;;;26.18;38.91
50302;BME280;36550;50.472;19.744;2022-07-25T09:22:06;98154.55;;;26.22;39.03
50302;BME280;36550;50.472;19.744;2022-07-25T09:24:50;98150.42;;;26.31;39.09
50302;BME280;36550;50.472;19.744;2022-07-25T09:27:34;98150.32;;;26.40;39.03
50302;BME280;36550;50.472;19.744;2022-07-25T09:30:19;98149.99;;;26.41;37.45
50302;BME280;36550;50.472;19.744;2022-07-25T09:33:03;98148.73;;;26.45;37.89
50302;BME280;36550;50.472;19.744;2022-07-25T09:35:47;98144.59;;;26.54;38.34
50302;BME280;36550;50.472;19.744;2022-07-25T09:38:32;98142.72;;;26.60;38.46
50302;BME280;36550;50.472;19.744;2022-07-25T09:41:16;98131.28;;;26.69;38.32
50302;BME280;36550;50.472;19.744;2022-07-25T09:44:01;98127.80;;;26.75;37.57
50302;BME280;36550;50.472;19.744;2022-07-25T09:46:45;98123.63;;;26.78;37.41
50302;BME280;36550;50.472;19.744;2022-07-25T09:49:43;98128.67;;;26.79;37.49
50302;BME280;36550;50.472;19.744;2022-07-25T09:52:29;98128.23;;;26.77;37.01
50302;BME280;36550;50.472;19.744;2022-07-25T09:55:14;98121.51;;;26.65;36.20
50302;BME280;36550;50.472;19.744;2022-07-25T09:57:58;98117.92;;;26.61;36.93
50302;BME280;36550;50.472;19.744;2022-07-25T10:00:43;98116.25;;;26.62;36.91
50302;BME280;36550;50.472;19.744;2022-07-25T10:03:40;98114.00;;;26.64;37.00
50302;BME280;36550;50.472;19.744;2022-07-25T10:09:43;98106.59;;;26.61;36.29
50302;BME280;36550;50.472;19.744;2022-07-25T10:12:29;98099.07;;;26.55;35.96
50302;BME280;36550;50.472;19.744;2022-07-25T10:15:13;98098.28;;;26.48;36.44
50302;BME280;36550;50.472;19.744;2022-07-25T10:18:02;98093.12;;;26.43;35.99
50302;BME280;36550;50.472;19.744;2022-07-25T10:20:52;98097.63;;;26.33;34.72
50302;BME280;36550;50.472;19.744;2022-07-25T10:23:38;98095.48;;;26.26;35.61
50302;BME280;36550;50.472;19.744;2022-07-25T10:26:22;98089.98;;;26.22;36.24
50302;BME280;36550;50.472;19.744;2022-07-25T10:29:10;98090.54;;;26.28;36.28
50302;BME280;36550;50.472;19.744;2022-07-25T10:32:03;98085.06;;;26.37;35.95
50302;BME280;36550;50.472;19.744;2022-07-25T10:34:53;98089.08;;;26.43;36.05
50302;BME280;36550;50.472;19.744;2022-07-25T10:37:38;98081.02;;;26.49;35.88
50302;BME280;36550;50.472;19.744;2022-07-25T10:40:36;98082.36;;;26.61;35.92
50302;BME280;36550;50.472;19.744;2022-07-25T10:43:22;98081.23;;;26.68;35.67
50302;BME280;36550;50.472;19.744;2022-07-25T10:46:16;98082.69;;;26.72;35.67
50302;BME280;36550;50.472;19.744;2022-07-25T10:49:05;98077.08;;;26.77;35.41
50302;BME280;36550;50.472;19.744;2022-07-25T10:51:58;98067.73;;;26.87;35.61
50302;BME280;36550;50.472;19.744;2022-07-25T10:54:54;98060.56;;;26.91;33.82
50302;BME280;36550;50.472;19.744;2022-07-25T10:57:39;98059.19;;;26.97;35.55
50302;BME280;36550;50.472;19.744;2022-07-25T11:00:24;98061.64;;;26.96;35.52
50302;BME280;36550;50.472;19.744;2022-07-25T11:03:08;98054.47;;;26.94;35.40
50302;BME280;36550;50.472;19.744;2022-07-25T11:05:53;98058.64;;;26.92;35.62
50302;BME280;36550;50.472;19.744;2022-07-25T11:08:37;98047.30;;;26.92;34.87
50302;BME280;36550;50.472;19.744;2022-07-25T11:11:36;98048.98;;;26.91;35.93
50302;BME280;36550;50.472;19.744;2022-07-25T11:14:40;98040.94;;;26.84;35.61
50302;BME280;36550;50.472;19.744;2022-07-25T11:17:23;98033.80;;;26.76;36.37
50302;BME280;36550;50.472;19.744;2022-07-25T11:20:09;98038.70;;;26.74;36.31
50302;BME280;36550;50.472;19.744;2022-07-25T11:22:55;98034.00;;;26.77;36.26
50302;BME280;36550;50.472;19.744;2022-07-25T11:25:39;98025.81;;;26.80;36.05
50302;BME280;36550;50.472;19.744;2022-07-25T11:28:35;98029.72;;;26.82;35.98
50302;BME280;36550;50.472;19.744;2022-07-25T11:31:21;98029.39;;;26.84;35.96
50302;BME280;36550;50.472;19.744;2022-07-25T11:34:06;98029.48;;;26.87;35.01
50302;BME280;36550;50.472;19.744;2022-07-25T11:36:51;98021.41;;;26.81;35.12
50302;BME280;36550;50.472;19.744;2022-07-25T11:39:40;98014.38;;;26.77;36.09
50302;BME280;36550;50.472;19.744;2022-07-25T11:42:37;98010.77;;;26.79;35.01
50302;BME280;36550;50.472;19.744;2022-07-25T11:45:30;98016.50;;;26.77;35.89
50302;BME280;36550;50.472;19.744;2022-07-25T11:48:42;98014.14;;;26.82;35.58
50302;BME280;36550;50.472;19.744;2022-07-25T11:51:18;98005.16;;;26.84;35.32
50302;BME280;36550;50.472;19.744;2022-07-25T11:54:09;97993.71;;;26.81;35.53
50302;BME280;36550;50.472;19.744;2022-07-25T11:56:54;97993.71;;;26.81;35.96
50302;BME280;36550;50.472;19.744;2022-07-25T11:59:42;97987.66;;;26.78;35.76
50302;BME280;36550;50.472;19.744;2022-07-25T12:02:29;97983.84;;;26.79;35.76
50302;BME280;36550;50.472;19.744;2022-07-25T12:05:17;97979.00;;;26.84;35.67
50302;BME280;36550;50.472;19.744;2022-07-25T12:10:57;97975.50;;;26.90;34.67
50302;BME280;36550;50.472;19.744;2022-07-25T12:13:41;97972.47;;;26.92;34.84
50302;BME280;36550;50.472;19.744;2022-07-25T12:16:25;97970.55;;;26.92;34.64
50302;BME280;36550;50.472;19.744;2022-07-25T12:19:18;97961.93;;;26.93;34.94
50302;BME280;36550;50.472;19.744;2022-07-25T12:22:03;97959.58;;;26.91;35.24
50302;BME280;36550;50.472;19.744;2022-07-25T12:24:47;97960.11;;;26.97;35.33
50302;BME280;36550;50.472;19.744;2022-07-25T12:27:32;97954.81;;;27.00;35.29
50302;BME280;36550;50.472;19.744;2022-07-25T12:30:16;97950.98;;;27.01;33.83
50302;BME280;36550;50.472;19.744;2022-07-25T12:33:01;97945.69;;;27.05;33.20
50302;BME280;36550;50.472;19.744;2022-07-25T12:35:45;97950.73;;;27.06;33.65
50302;BME280;36550;50.472;19.744;2022-07-25T12:38:29;97940.63;;;27.10;34.14
50302;BME280;36550;50.472;19.744;2022-07-25T12:41:13;97944.33;;;27.11;34.29
50302;BME280;36550;50.472;19.744;2022-07-25T12:43:58;97939.48;;;27.11;33.61
50302;BME280;36550;50.472;19.744;2022-07-25T12:46:43;97937.50;;;27.07;33.90
50302;BME280;36550;50.472;19.744;2022-07-25T12:49:28;97938.18;;;27.04;33.91
50302;BME280;36550;50.472;19.744;2022-07-25T12:52:12;97931.58;;;27.02;34.13
50302;BME280;36550;50.472;19.744;2022-07-25T12:54:56;97926.73;;;27.01;34.41
50302;BME280;36550;50.472;19.744;2022-07-25T12:57:41;97928.52;;;27.03;34.33
50302;BME280;36550;50.472;19.744;2022-07-25T13:00:25;97922.25;;;27.05;34.43
50302;BME280;36550;50.472;19.744;2022-07-25T13:03:12;97928.70;;;27.11;34.41
50302;BME280;36550;50.472;19.744;2022-07-25T13:05:56;97925.09;;;27.13;33.75
50302;BME280;36550;50.472;19.744;2022-07-25T13:08:41;97921.52;;;27.15;34.18
50302;BME280;36550;50.472;19.744;2022-07-25T13:11:25;97918.59;;;27.14;34.14
50302;BME280;36550;50.472;19.744;2022-07-25T13:14:10;97924.77;;;27.14;34.12
50302;BME280;36550;50.472;19.744;2022-07-25T13:16:55;97914.41;;;27.16;34.21
50302;BME280;36550;50.472;19.744;2022-07-25T13:19:39;97912.64;;;27.14;33.48
50302;BME280;36550;50.472;19.744;2022-07-25T13:22:24;97905.56;;;27.16;33.79
50302;BME280;36550;50.472;19.744;2022-07-25T13:25:09;97894.92;;;27.13;33.85
50302;BME280;36550;50.472;19.744;2022-07-25T13:27:53;97895.93;;;27.15;33.79
50302;BME280;36550;50.472;19.744;2022-07-25T13:30:37;97888.48;;;27.18;33.37
50302;BME280;36550;50.472;19.744;2022-07-25T13:33:21;97888.14;;;27.19;33.82
50302;BME280;36550;50.472;19.744;2022-07-25T13:36:06;97877.59;;;27.20;34.03
50302;BME280;36550;50.472;19.744;2022-07-25T13:38:51;97884.41;;;27.24;34.11
50302;BME280;36550;50.472;19.744;2022-07-25T13:41:35;97879.80;;;27.24;33.80
50302;BME280;36550;50.472;19.744;2022-07-25T13:44:19;97878.02;;;27.22;33.42
50302;BME280;36550;50.472;19.744;2022-07-25T13:47:03;97867.59;;;27.21;33.72
50302;BME280;36550;50.472;19.744;2022-07-25T13:49:48;97864.47;;;27.19;33.88
50302;BME280;36550;50.472;19.744;2022-07-25T13:52:32;97865.13;;;27.22;33.86
50302;BME280;36550;50.472;19.744;2022-07-25T13:55:16;97853.98;;;27.23;33.33
50302;BME280;36550;50.472;19.744;2022-07-25T13:58:01;97860.28;;;27.28;33.41
50302;BME280;36550;50.472;19.744;2022-07-25T14:00:46;97857.02;;;27.28;33.49
50302;BME280;36550;50.472;19.744;2022-07-25T14:03:30;97853.89;;;27.26;33.36
50302;BME280;36550;50.472;19.744;2022-07-25T14:06:14;97845.09;;;27.29;33.77
50302;BME280;36550;50.472;19.744;2022-07-25T14:08:58;97843.20;;;27.30;33.31
50302;BME280;36550;50.472;19.744;2022-07-25T14:11:43;97845.55;;;27.31;33.15
50302;BME280;36550;50.472;19.744;2022-07-25T14:14:27;97842.05;;;27.31;33.60
50302;BME280;36550;50.472;19.744;2022-07-25T14:17:11;97837.58;;;27.29;33.10
50302;BME280;36550;50.472;19.744;2022-07-25T14:19:55;97833.88;;;27.27;33.47
50302;BME280;36550;50.472;19.744;2022-07-25T14:22:40;97829.64;;;27.26;33.64
50302;BME280;36550;50.472;19.744;2022-07-25T14:25:26;97825.34;;;27.25;33.76
50302;BME280;36550;50.472;19.744;2022-07-25T14:28:10;97824.77;;;27.25;33.45
50302;BME280;36550;50.472;19.744;2022-07-25T14:30:54;97823.34;;;27.28;33.52